Time;durP1;ratioP1;P1;durP2;ratioP2;P2;SDS_P1;SDS_P2;PMS_P1;PMS_P2;Temp;Humidity;BMP_temperature;BMP_pressure;BME280_temperature;BME280_humidity;BME280_pressure;Samples;Min_cycle;Max_cycle;Signal;HPM_P1;HPM_P2
2024/02/23 00:02:24;;;;;;;1.33;0.30;;;10.40;99.90;;;;;;4953077;28;20202;-47
2024/02/23 00:04:52;;;;;;;0.40;0.30;;;10.30;99.90;;;;;;4962725;28;20210;-56
2024/02/23 00:07:19;;;;;;;0.77;0.13;;;10.20;99.90;;;;;;4947700;28;20226;-53
2024/02/23 00:09:46;;;;;;;0.40;0.30;;;10.10;99.90;;;;;;4937089;28;20214;-51
2024/02/23 00:12:13;;;;;;;0.50;0.33;;;10.00;99.90;;;;;;4962669;28;20233;-48
2024/02/23 00:14:40;;;;;;;1.30;0.40;;;9.90;99.90;;;;;;4952887;28;20328;-47
2024/02/23 00:17:07;;;;;;;0.30;0.30;;;9.80;99.90;;;;;;4955076;28;20253;-47
2024/02/23 00:19:34;;;;;;;0.30;0.30;;;9.70;99.90;;;;;;4960881;28;21843;-54
2024/02/23 00:22:02;;;;;;;2.40;0.40;;;9.70;99.90;;;;;;4958771;28;20772;-49
2024/02/23 00:24:29;;;;;;;1.03;0.40;;;9.70;99.90;;;;;;4960707;28;20906;-54
2024/02/23 00:26:56;;;;;;;1.10;0.43;;;9.60;99.90;;;;;;4937771;28;20222;-50
2024/02/23 00:29:22;;;;;;;1.73;0.50;;;9.60;99.90;;;;;;4960079;28;20205;-52
2024/02/23 00:31:49;;;;;;;0.57;0.50;;;9.60;99.90;;;;;;4949983;28;22558;-47
2024/02/23 00:34:17;;;;;;;0.53;0.40;;;9.60;99.90;;;;;;4963632;28;20257;-52
2024/02/23 00:36:44;;;;;;;0.87;0.30;;;9.60;99.90;;;;;;4954461;28;20225;-47
2024/02/23 00:39:12;;;;;;;0.40;0.40;;;9.60;99.90;;;;;;4962908;28;20205;-51
2024/02/23 00:41:39;;;;;;;1.33;0.50;;;9.60;99.90;;;;;;4927533;28;20926;-51
2024/02/23 00:44:06;;;;;;;1.30;0.50;;;9.60;99.90;;;;;;4963438;28;20228;-46
2024/02/23 00:46:33;;;;;;;1.07;0.60;;;9.60;99.90;;;;;;4952464;28;20249;-52
2024/02/23 00:49:00;;;;;;;0.60;0.50;;;9.50;99.90;;;;;;4953481;28;20214;-50
2024/02/23 00:51:27;;;;;;;0.83;0.43;;;9.40;99.90;;;;;;4959252;28;20197;-53
2024/02/23 00:53:54;;;;;;;0.27;0.23;;;9.20;99.90;;;;;;4958826;28;21220;-51
2024/02/23 00:56:22;;;;;;;1.40;0.30;;;8.60;99.90;;;;;;4955460;28;20201;-51
2024/02/23 00:58:49;;;;;;;0.43;0.30;;;8.30;99.90;;;;;;4947304;28;20202;-49
2024/02/23 01:01:16;;;;;;;0.23;0.20;;;8.10;99.90;;;;;;4962859;28;20292;-47
2024/02/23 01:03:43;;;;;;;0.47;0.20;;;7.90;99.90;;;;;;4943756;28;20363;-46
2024/02/23 01:06:09;;;;;;;2.13;0.30;;;7.80;99.90;;;;;;4962763;28;20206;-50
2024/02/23 01:08:36;;;;;;;0.40;0.30;;;7.70;99.90;;;;;;4952810;28;20214;-48
2024/02/23 01:11:03;;;;;;;0.83;0.20;;;7.70;99.90;;;;;;4962568;28;20253;-46
2024/02/23 01:13:31;;;;;;;0.80;0.10;;;7.60;99.90;;;;;;4930841;28;20222;-55
2024/02/23 01:15:58;;;;;;;0.10;0.10;;;7.60;99.90;;;;;;4962325;28;20264;-50
2024/02/23 01:18:25;;;;;;;0.50;0.20;;;7.60;99.90;;;;;;4949747;28;20577;-50
2024/02/23 01:20:52;;;;;;;0.30;0.20;;;7.60;99.90;;;;;;4950964;28;21154;-48
2024/02/23 01:23:19;;;;;;;0.87;0.37;;;7.50;99.90;;;;;;4956708;28;20202;-54
2024/02/23 01:25:46;;;;;;;1.17;0.20;;;7.50;99.90;;;;;;4959557;28;20573;-47
2024/02/23 01:28:13;;;;;;;0.87;0.20;;;7.50;99.90;;;;;;4962566;28;20241;-50
2024/02/23 01:30:41;;;;;;;0.10;0.10;;;7.50;99.90;;;;;;4934676;28;20269;-49
2024/02/23 01:33:08;;;;;;;0.27;0.10;;;7.50;99.90;;;;;;4954158;28;20213;-46
2024/02/23 01:35:36;;;;;;;0.40;0.10;;;7.50;99.90;;;;;;4950160;28;20296;-54
2024/02/23 01:38:02;;;;;;;0.27;0.07;;;7.40;99.90;;;;;;4962617;28;20225;-51
2024/02/23 01:40:29;;;;;;;0.10;0.10;;;7.40;99.90;;;;;;4944806;28;20241;-52
2024/02/23 01:43:04;;;;;;;0.93;0.10;;;7.40;99.90;;;;;;4959765;28;20661;-51
2024/02/23 01:45:31;;;;;;;0.10;0.10;;;7.50;99.90;;;;;;4935683;28;20217;-50
2024/02/23 01:47:59;;;;;;;0.10;0.10;;;7.50;99.90;;;;;;4955950;28;20228;-53
2024/02/23 01:50:27;;;;;;;0.70;0.10;;;7.50;99.90;;;;;;4951024;28;20217;-46
2024/02/23 01:52:57;;;;;;;0.10;0.10;;;7.50;99.90;;;;;;4960680;28;20258;-54
2024/02/23 01:55:24;;;;;;;0.10;0.10;;;7.50;99.90;;;;;;4955943;28;20260;-50
2024/02/23 01:57:51;;;;;;;0.03;0.03;;;7.50;99.90;;;;;;4958830;28;20225;-55
2024/02/23 02:00:20;;;;;;;0.00;0.00;;;7.50;99.90;;;;;;4934952;28;20221;-48
2024/02/23 02:02:53;;;;;;;0.20;0.00;;;7.50;99.90;;;;;;4957867;28;20280;-52
2024/02/23 02:05:22;;;;;;;0.00;0.00;;;7.50;99.90;;;;;;4943322;28;20304;-48
2024/02/23 02:07:53;;;;;;;0.00;0.00;;;7.40;99.90;;;;;;4961243;28;20313;-52
2024/02/23 02:10:21;;;;;;;0.53;0.00;;;7.40;99.90;;;;;;4953303;28;20198;-51
2024/02/23 02:12:48;;;;;;;0.10;0.10;;;7.40;99.90;;;;;;4948763;28;20194;-47
2024/02/23 02:15:15;;;;;;;0.20;0.00;;;7.40;99.90;;;;;;4961746;28;20209;-46
2024/02/23 02:17:42;;;;;;;0.00;0.00;;;7.30;99.90;;;;;;4932886;28;20645;-51
2024/02/23 02:20:13;;;;;;;0.77;0.10;;;7.30;99.90;;;;;;4953872;28;20583;-49
2024/02/23 02:22:41;;;;;;;0.03;0.00;;;7.30;99.90;;;;;;4948168;28;20273;-53
2024/02/23 02:25:08;;;;;;;0.30;0.07;;;7.20;99.90;;;;;;4956594;28;20206;-46
2024/02/23 02:27:36;;;;;;;0.63;0.10;;;7.20;99.90;;;;;;4959735;28;20586;-53
2024/02/23 02:30:03;;;;;;;0.00;0.00;;;7.20;99.90;;;;;;4960902;28;20304;-50
2024/02/23 02:32:29;;;;;;;0.00;0.00;;;7.20;99.90;;;;;;4934549;28;20218;-52
2024/02/23 02:34:56;;;;;;;0.00;0.00;;;7.10;99.90;;;;;;4960045;28;20250;-49
2024/02/23 02:37:23;;;;;;;0.77;0.10;;;7.10;99.90;;;;;;4953783;28;20226;-48
2024/02/23 02:39:51;;;;;;;0.00;0.00;;;7.00;99.90;;;;;;4953155;28;20186;-46
2024/02/23 02:42:18;;;;;;;0.00;0.00;;;7.00;99.90;;;;;;4961683;28;20227;-49
2024/02/23 02:44:45;;;;;;;0.10;0.10;;;6.80;99.90;;;;;;4956866;28;20887;-49
2024/02/23 02:47:12;;;;;;;0.20;0.00;;;6.80;99.90;;;;;;4936782;28;20663;-46
2024/02/23 02:49:42;;;;;;;0.00;0.00;;;6.80;99.90;;;;;;4957830;28;20249;-53
2024/02/23 02:52:09;;;;;;;0.00;0.00;;;6.70;99.90;;;;;;4953358;28;20697;-50
2024/02/23 02:54:36;;;;;;;0.00;0.00;;;6.60;99.90;;;;;;4959573;28;20194;-53
2024/02/23 02:57:05;;;;;;;1.00;0.10;;;6.60;99.90;;;;;;4957950;28;20244;-49
2024/02/23 02:59:35;;;;;;;0.43;0.00;;;6.50;99.90;;;;;;4962999;28;20201;-52
2024/02/23 03:02:02;;;;;;;0.00;0.00;;;6.40;99.90;;;;;;4961261;28;20226;-49
2024/02/23 03:04:29;;;;;;;0.00;0.00;;;6.40;99.90;;;;;;4939352;28;20225;-52
2024/02/23 03:06:56;;;;;;;0.30;0.00;;;6.30;99.90;;;;;;4954650;28;20238;-46
2024/02/23 03:09:23;;;;;;;0.47;0.10;;;6.30;99.90;;;;;;4957288;28;20214;-47
2024/02/23 03:11:49;;;;;;;0.50;0.10;;;6.30;99.90;;;;;;4956175;28;20280;-50
2024/02/23 03:14:18;;;;;;;0.00;0.00;;;6.30;99.90;;;;;;4964674;28;20756;-51
2024/02/23 03:16:47;;;;;;;0.47;0.10;;;6.20;99.90;;;;;;4960961;28;20244;-46
2024/02/23 03:19:15;;;;;;;0.10;0.10;;;6.30;99.90;;;;;;4941741;28;20325;-46
2024/02/23 03:21:42;;;;;;;0.10;0.10;;;6.30;99.90;;;;;;4952327;28;20591;-55
2024/02/23 03:24:08;;;;;;;1.23;0.10;;;6.30;99.90;;;;;;4964739;28;20252;-48
2024/02/23 03:26:35;;;;;;;1.03;0.10;;;6.20;99.90;;;;;;4947033;28;20245;-49
2024/02/23 03:29:02;;;;;;;0.40;0.20;;;6.20;99.90;;;;;;4964966;28;20198;-48
2024/02/23 03:31:30;;;;;;;0.30;0.10;;;6.20;99.90;;;;;;4961469;28;20206;-54
2024/02/23 03:33:57;;;;;;;0.67;0.10;;;6.20;99.90;;;;;;4940181;28;20288;-48
2024/02/23 03:36:24;;;;;;;7.27;0.50;;;6.20;99.90;;;;;;4962515;28;20206;-55
2024/02/23 03:38:50;;;;;;;0.27;0.20;;;6.20;99.90;;;;;;4955077;28;20775;-51
2024/02/23 03:41:17;;;;;;;0.63;0.10;;;6.20;99.90;;;;;;4963006;28;20214;-56
2024/02/23 03:43:44;;;;;;;0.20;0.10;;;6.20;99.90;;;;;;4956457;28;21085;-50
2024/02/23 03:46:11;;;;;;;0.43;0.17;;;6.20;99.90;;;;;;4964306;28;20280;-46
2024/02/23 03:48:39;;;;;;;0.27;0.07;;;6.20;99.90;;;;;;4958262;28;20213;-48
2024/02/23 03:51:06;;;;;;;0.67;0.10;;;6.10;99.90;;;;;;4940097;28;20225;-53
2024/02/23 03:53:33;;;;;;;0.30;0.30;;;6.10;99.90;;;;;;4950958;28;20284;-47
2024/02/23 03:56:00;;;;;;;0.77;0.20;;;6.00;99.90;;;;;;4962210;28;20561;-48
2024/02/23 03:58:27;;;;;;;0.70;0.10;;;6.00;99.90;;;;;;4955787;28;20262;-55
2024/02/23 04:00:54;;;;;;;0.30;0.20;;;5.90;99.90;;;;;;4963489;28;20358;-48
2024/02/23 04:03:21;;;;;;;2.23;0.20;;;5.90;99.90;;;;;;4962246;28;20723;-51
2024/02/23 04:05:49;;;;;;;0.30;0.10;;;5.90;99.90;;;;;;4937915;28;20280;-45
2024/02/23 04:08:16;;;;;;;1.33;0.20;;;5.80;99.90;;;;;;4961401;28;20237;-53
2024/02/23 04:10:42;;;;;;;0.20;0.20;;;5.80;99.90;;;;;;4954910;28;20226;-45
2024/02/23 04:13:10;;;;;;;2.23;0.40;;;5.80;99.90;;;;;;4963761;28;20202;-51
2024/02/23 04:15:37;;;;;;;1.13;0.20;;;5.70;99.90;;;;;;4955300;28;20948;-50
2024/02/23 04:18:04;;;;;;;0.90;0.23;;;5.70;99.90;;;;;;4958763;28;20218;-47
2024/02/23 04:20:32;;;;;;;0.20;0.20;;;5.70;99.90;;;;;;4935636;28;20268;-52
2024/02/23 04:23:00;;;;;;;0.50;0.40;;;5.70;99.90;;;;;;4961220;28;20257;-49
2024/02/23 04:25:27;;;;;;;1.70;0.40;;;5.60;99.90;;;;;;4950000;28;20202;-52
2024/02/23 04:27:53;;;;;;;1.40;0.40;;;5.70;99.90;;;;;;4961940;28;20225;-50
2024/02/23 04:30:20;;;;;;;2.60;0.40;;;5.70;99.90;;;;;;4950738;28;20269;-52
2024/02/23 04:32:47;;;;;;;0.23;0.23;;;5.70;99.90;;;;;;4958506;28;20209;-50
2024/02/23 04:35:15;;;;;;;2.00;0.60;;;5.70;99.90;;;;;;4961803;28;20260;-51
2024/02/23 04:37:44;;;;;;;0.40;0.40;;;5.70;99.90;;;;;;4935330;28;21173;-51
2024/02/23 04:40:13;;;;;;;0.50;0.40;;;5.70;99.90;;;;;;4962766;28;20302;-52
2024/02/23 04:42:40;;;;;;;0.40;0.40;;;5.80;99.90;;;;;;4954304;28;20214;-50
2024/02/23 04:45:08;;;;;;;0.60;0.30;;;5.80;99.90;;;;;;4963741;28;20194;-47
2024/02/23 04:47:35;;;;;;;1.33;0.50;;;5.80;99.90;;;;;;4946478;28;20365;-51
2024/02/23 04:50:03;;;;;;;2.10;0.60;;;5.80;99.90;;;;;;4963086;28;20210;-48
2024/02/23 04:52:30;;;;;;;0.53;0.50;;;5.80;99.90;;;;;;4933633;28;20336;-48
2024/02/23 04:54:56;;;;;;;1.50;0.60;;;5.80;99.90;;;;;;4963605;28;20206;-49
2024/02/23 04:57:24;;;;;;;1.10;0.53;;;5.80;99.90;;;;;;4952413;28;20229;-54
2024/02/23 04:59:52;;;;;;;2.83;0.90;;;5.80;99.90;;;;;;4967136;28;20202;-47
2024/02/23 05:02:18;;;;;;;1.37;0.40;;;5.80;99.90;;;;;;4941265;28;20264;-48
2024/02/23 05:04:46;;;;;;;3.37;0.80;;;5.80;99.90;;;;;;4960999;28;20206;-51
2024/02/23 05:07:13;;;;;;;1.23;0.70;;;5.80;99.90;;;;;;4930394;28;20356;-48
2024/02/23 05:09:40;;;;;;;1.10;0.40;;;5.80;99.90;;;;;;4956186;28;20202;-53
2024/02/23 05:12:08;;;;;;;0.93;0.37;;;5.90;99.90;;;;;;4951620;28;20214;-47
2024/02/23 05:14:36;;;;;;;1.13;0.60;;;5.90;99.90;;;;;;4964180;28;20253;-50
2024/02/23 05:17:04;;;;;;;2.17;0.70;;;5.90;99.90;;;;;;4945396;28;20225;-50
2024/02/23 05:19:30;;;;;;;0.60;0.60;;;5.90;99.90;;;;;;4955468;28;20217;-54
2024/02/23 05:21:57;;;;;;;1.77;0.90;;;5.90;99.90;;;;;;4933201;28;20221;-54
2024/02/23 05:24:24;;;;;;;0.80;0.63;;;5.90;99.90;;;;;;4948215;28;20202;-51
2024/02/23 05:26:52;;;;;;;3.13;0.80;;;5.90;99.90;;;;;;4958265;28;20711;-55
2024/02/23 05:29:21;;;;;;;1.83;0.80;;;5.90;99.90;;;;;;4946153;28;20276;-49
2024/02/23 05:31:52;;;;;;;2.90;0.97;;;5.90;99.90;;;;;;4958036;28;20208;-54
2024/02/23 05:34:19;;;;;;;2.97;1.03;;;5.80;99.90;;;;;;4951001;28;20874;-53
2024/02/23 05:36:46;;;;;;;2.50;1.10;;;5.80;99.90;;;;;;4962024;28;20730;-47
2024/02/23 05:39:15;;;;;;;1.07;0.70;;;5.80;99.90;;;;;;4929814;28;20198;-50
2024/02/23 05:41:42;;;;;;;1.53;0.80;;;5.70;99.90;;;;;;4949532;28;20236;-50
2024/02/23 05:44:09;;;;;;;2.07;0.83;;;5.70;99.90;;;;;;4945749;28;20285;-48
2024/02/23 05:46:36;;;;;;;2.13;1.70;;;5.70;99.90;;;;;;4953788;28;20304;-51
2024/02/23 05:49:04;;;;;;;3.30;0.87;;;5.70;99.90;;;;;;4956038;28;20209;-49
2024/02/23 05:51:32;;;;;;;2.20;0.60;;;5.70;99.90;;;;;;4967353;28;20280;-56
2024/02/23 05:53:59;;;;;;;1.23;1.03;;;5.70;99.90;;;;;;4931504;28;20288;-52
2024/02/23 05:56:26;;;;;;;1.37;0.87;;;5.70;99.90;;;;;;4960053;28;20269;-53
2024/02/23 05:58:52;;;;;;;2.53;0.97;;;5.70;99.90;;;;;;4951882;28;20225;-49
2024/02/23 06:01:19;;;;;;;1.83;1.10;;;5.70;99.90;;;;;;4951375;28;20245;-53
2024/02/23 06:03:46;;;;;;;2.27;1.23;;;5.70;99.90;;;;;;4954304;28;20224;-50
2024/02/23 06:06:15;;;;;;;1.77;1.03;;;5.70;99.90;;;;;;4947655;28;20275;-47
2024/02/23 06:08:41;;;;;;;4.53;1.30;;;5.70;99.90;;;;;;4934368;28;20284;-47
2024/02/23 06:11:10;;;;;;;2.37;1.17;;;5.80;99.90;;;;;;4955567;28;20265;-54
2024/02/23 06:13:37;;;;;;;1.63;0.80;;;5.80;99.90;;;;;;4948460;28;20641;-49
2024/02/23 06:16:04;;;;;;;2.53;1.00;;;5.80;99.90;;;;;;4960880;28;20273;-49
2024/02/23 06:18:31;;;;;;;1.97;0.97;;;5.80;99.90;;;;;;4957306;28;20570;-54
2024/02/23 06:20:58;;;;;;;1.70;0.70;;;5.80;99.90;;;;;;4945068;28;20284;-56
2024/02/23 06:23:26;;;;;;;2.63;0.80;;;5.80;99.90;;;;;;4937011;28;20258;-53
2024/02/23 06:25:53;;;;;;;1.10;0.87;;;5.70;99.90;;;;;;4950589;28;20309;-51
2024/02/23 06:28:20;;;;;;;1.37;0.70;;;5.70;99.90;;;;;;4946223;28;20316;-56
2024/02/23 06:30:47;;;;;;;1.17;0.57;;;5.70;99.90;;;;;;4954566;28;20911;-49
2024/02/23 06:33:13;;;;;;;1.40;0.50;;;5.70;99.90;;;;;;4958923;28;20195;-54
2024/02/23 06:35:40;;;;;;;1.27;0.50;;;5.70;99.90;;;;;;4955071;28;21271;-52
2024/02/23 06:38:07;;;;;;;1.47;0.90;;;5.70;99.90;;;;;;4958996;28;20229;-53
2024/02/23 06:40:35;;;;;;;2.67;1.30;;;5.70;99.90;;;;;;4932406;28;20911;-49
2024/02/23 06:43:02;;;;;;;1.53;0.67;;;5.70;99.90;;;;;;4965610;28;20230;-49
2024/02/23 06:45:29;;;;;;;1.93;0.77;;;5.70;99.90;;;;;;4953263;28;20212;-53
2024/02/23 06:47:55;;;;;;;1.27;0.70;;;5.80;99.90;;;;;;4963318;28;20657;-50
2024/02/23 06:50:22;;;;;;;3.77;1.07;;;5.70;99.90;;;;;;4950669;28;20217;-54
2024/02/23 06:52:49;;;;;;;1.17;1.00;;;5.80;99.90;;;;;;4946721;28;20288;-47
2024/02/23 06:55:17;;;;;;;1.37;0.80;;;5.80;99.90;;;;;;4939203;28;20292;-54
2024/02/23 06:57:46;;;;;;;3.83;1.13;;;5.70;99.90;;;;;;4962916;28;20331;-49
2024/02/23 07:00:14;;;;;;;1.40;0.87;;;5.80;99.90;;;;;;4941243;28;20653;-53
2024/02/23 07:02:41;;;;;;;1.40;0.90;;;5.70;99.90;;;;;;4963895;28;20226;-47
2024/02/23 07:05:08;;;;;;;2.77;0.83;;;5.80;99.90;;;;;;4958322;28;20261;-52
2024/02/23 07:07:36;;;;;;;0.90;0.80;;;5.80;99.90;;;;;;4950025;28;21025;-47
2024/02/23 07:10:03;;;;;;;1.60;0.90;;;5.80;99.90;;;;;;4940647;28;20300;-55
2024/02/23 07:12:30;;;;;;;2.70;1.10;;;5.80;99.90;;;;;;4962773;28;20194;-46
2024/02/23 07:14:58;;;;;;;2.40;1.23;;;5.80;99.90;;;;;;4956068;28;20265;-44
2024/02/23 07:17:25;;;;;;;2.33;1.20;;;5.80;99.90;;;;;;4951860;28;20549;-48
2024/02/23 07:19:53;;;;;;;1.80;1.23;;;5.80;99.90;;;;;;4962024;28;20828;-45
2024/02/23 07:22:20;;;;;;;2.13;1.10;;;5.90;99.90;;;;;;4953082;28;20214;-51
2024/02/23 07:24:46;;;;;;;5.43;1.50;;;5.90;99.90;;;;;;4967020;28;20283;-48
2024/02/23 07:27:13;;;;;;;2.87;1.10;;;5.90;99.90;;;;;;4932550;28;20351;-53
2024/02/23 07:29:40;;;;;;;1.70;1.30;;;5.90;99.90;;;;;;4954539;28;20225;-51
2024/02/23 07:32:08;;;;;;;1.50;0.90;;;5.90;99.90;;;;;;4949187;28;21052;-49
2024/02/23 07:34:35;;;;;;;3.10;1.10;;;5.90;99.90;;;;;;4951765;28;20891;-53
2024/02/23 07:37:02;;;;;;;1.53;1.17;;;5.90;99.90;;;;;;4943334;28;20291;-49
2024/02/23 07:39:29;;;;;;;3.17;1.13;;;5.90;99.90;;;;;;4954269;28;20630;-46
2024/02/23 07:41:56;;;;;;;1.73;1.10;;;5.90;99.90;;;;;;4929661;28;20756;-50
2024/02/23 07:44:24;;;;;;;2.83;0.93;;;5.80;99.90;;;;;;4960481;28;20194;-50
2024/02/23 07:46:52;;;;;;;2.53;1.00;;;5.90;99.90;;;;;;4947721;28;20214;-48
2024/02/23 07:49:20;;;;;;;2.40;1.10;;;5.80;99.90;;;;;;4944910;28;20206;-49
2024/02/23 07:51:48;;;;;;;3.63;1.23;;;5.80;99.90;;;;;;4942685;28;20210;-46
2024/02/23 07:54:16;;;;;;;1.40;1.13;;;5.90;99.90;;;;;;4938808;28;20269;-48
2024/02/23 07:56:42;;;;;;;3.10;1.17;;;5.90;99.90;;;;;;4938323;28;20314;-47
2024/02/23 07:59:10;;;;;;;4.23;1.20;;;6.00;99.90;;;;;;4957959;28;20553;-48
2024/02/23 08:01:37;;;;;;;2.53;1.37;;;6.00;99.90;;;;;;4956522;28;20293;-50
2024/02/23 08:04:04;;;;;;;2.07;1.23;;;6.10;99.90;;;;;;4961770;28;20244;-51
2024/02/23 08:06:32;;;;;;;2.00;1.30;;;6.10;99.90;;;;;;4959572;28;20229;-51
2024/02/23 08:08:59;;;;;;;1.70;1.13;;;6.20;99.90;;;;;;4947132;28;20676;-53
2024/02/23 08:11:26;;;;;;;2.13;1.50;;;6.20;99.90;;;;;;4950569;28;20307;-50
2024/02/23 08:13:53;;;;;;;2.13;1.40;;;6.30;99.90;;;;;;4935380;28;20208;-52
2024/02/23 08:16:20;;;;;;;2.57;1.40;;;6.30;99.90;;;;;;4959135;28;20301;-53
2024/02/23 08:18:47;;;;;;;3.37;1.67;;;6.40;99.90;;;;;;4952125;28;20256;-57
2024/02/23 08:21:14;;;;;;;1.57;1.00;;;6.40;99.90;;;;;;4960247;28;20845;-47
2024/02/23 08:23:42;;;;;;;3.33;1.20;;;6.40;99.90;;;;;;4955896;28;20238;-46
2024/02/23 08:26:10;;;;;;;3.03;1.20;;;6.50;99.90;;;;;;4947798;28;20281;-48
2024/02/23 08:28:36;;;;;;;4.57;1.53;;;6.50;99.90;;;;;;4940158;28;20260;-51
2024/02/23 08:31:03;;;;;;;5.07;1.20;;;6.60;99.90;;;;;;4957858;28;20259;-51
2024/02/23 08:33:30;;;;;;;6.27;1.60;;;6.70;99.90;;;;;;4953601;28;20744;-48
2024/02/23 08:35:57;;;;;;;2.53;1.40;;;6.70;99.90;;;;;;4956842;28;20214;-51
2024/02/23 08:38:24;;;;;;;2.93;1.03;;;6.80;99.90;;;;;;4951588;28;20324;-48
2024/02/23 08:40:52;;;;;;;3.27;1.33;;;6.90;99.90;;;;;;4937377;28;20210;-55
2024/02/23 08:43:19;;;;;;;3.13;0.83;;;6.90;99.90;;;;;;4926344;28;20221;-50
2024/02/23 08:45:46;;;;;;;4.17;1.00;;;7.00;99.90;;;;;;4960079;28;20202;-49
2024/02/23 08:48:14;;;;;;;2.60;1.30;;;7.00;99.90;;;;;;4950591;28;21532;-45
2024/02/23 08:50:41;;;;;;;6.10;1.30;;;7.00;99.90;;;;;;4968415;28;20293;-48
2024/02/23 08:53:08;;;;;;;4.43;1.10;;;7.00;99.90;;;;;;4951956;28;20193;-52
2024/02/23 08:55:35;;;;;;;3.00;1.20;;;7.00;99.90;;;;;;4949350;28;20201;-52
2024/02/23 08:58:05;;;;;;;2.07;0.97;;;7.00;99.90;;;;;;4939489;28;20230;-50
2024/02/23 09:00:32;;;;;;;1.87;1.00;;;7.00;99.90;;;;;;4941018;28;20835;-53
2024/02/23 09:02:59;;;;;;;2.73;1.50;;;7.00;99.90;;;;;;4961194;28;20954;-50
2024/02/23 09:05:27;;;;;;;1.40;1.00;;;7.10;99.90;;;;;;4953032;28;20206;-52
2024/02/23 09:07:54;;;;;;;6.03;1.30;;;7.00;99.90;;;;;;4952466;28;20250;-51
2024/02/23 09:10:21;;;;;;;4.00;1.13;;;7.10;99.90;;;;;;4945192;28;20214;-49
2024/02/23 09:12:48;;;;;;;3.53;1.00;;;7.10;99.90;;;;;;4957717;28;20548;-50
2024/02/23 09:15:16;;;;;;;2.00;0.80;;;7.10;99.90;;;;;;4936570;28;21194;-53
2024/02/23 09:17:42;;;;;;;2.70;1.23;;;7.10;99.90;;;;;;4943127;28;20271;-50
2024/02/23 09:20:11;;;;;;;2.73;0.70;;;7.10;99.90;;;;;;4952661;28;20217;-55
2024/02/23 09:22:37;;;;;;;3.10;0.93;;;7.10;99.90;;;;;;4962767;28;20202;-51
2024/02/23 09:25:05;;;;;;;2.10;0.83;;;7.10;99.90;;;;;;4962611;28;20665;-53
2024/02/23 09:27:32;;;;;;;1.03;0.97;;;7.20;99.90;;;;;;4947137;28;23475;-47
2024/02/23 09:29:59;;;;;;;1.90;0.90;;;7.20;99.90;;;;;;4938745;28;20592;-51
2024/02/23 09:32:27;;;;;;;5.23;1.00;;;7.30;99.90;;;;;;4950601;28;20296;-53
2024/02/23 09:34:54;;;;;;;5.07;1.17;;;7.30;99.90;;;;;;4951007;28;20209;-50
2024/02/23 09:37:21;;;;;;;2.03;1.13;;;7.40;99.90;;;;;;4958376;28;20218;-52
2024/02/23 09:39:48;;;;;;;2.73;1.17;;;7.40;99.90;;;;;;4949164;28;20201;-54
2024/02/23 09:42:15;;;;;;;4.80;1.10;;;7.50;99.90;;;;;;4954243;28;20232;-50
2024/02/23 09:44:44;;;;;;;2.20;0.80;;;7.50;99.90;;;;;;4943230;28;21001;-54
2024/02/23 09:47:11;;;;;;;3.93;0.90;;;7.50;99.90;;;;;;4949105;28;20237;-51
2024/02/23 09:49:41;;;;;;;1.93;0.90;;;7.50;99.90;;;;;;4949127;28;20222;-53
2024/02/23 09:52:09;;;;;;;4.70;0.90;;;7.50;99.90;;;;;;4954584;28;20193;-52
2024/02/23 09:54:37;;;;;;;3.83;0.93;;;7.50;99.90;;;;;;4943599;28;20269;-49
2024/02/23 09:57:07;;;;;;;2.43;1.00;;;7.60;99.90;;;;;;4958535;28;20226;-51
2024/02/23 09:59:35;;;;;;;2.70;0.73;;;7.60;99.90;;;;;;4948647;28;21393;-51
2024/02/23 10:02:03;;;;;;;2.23;0.60;;;7.60;99.90;;;;;;4937720;28;20770;-52
2024/02/23 10:04:31;;;;;;;3.77;0.83;;;7.70;99.90;;;;;;4960311;28;20218;-45
2024/02/23 10:06:59;;;;;;;4.47;1.00;;;7.70;99.90;;;;;;4957629;28;20356;-49
2024/02/23 10:09:26;;;;;;;4.77;0.87;;;7.80;99.90;;;;;;4947200;28;20205;-52
2024/02/23 10:11:54;;;;;;;3.70;0.70;;;7.80;99.90;;;;;;4963387;28;20193;-48
2024/02/23 10:14:21;;;;;;;4.60;1.43;;;7.80;99.90;;;;;;4948527;28;20269;-49
2024/02/23 10:16:48;;;;;;;4.57;1.07;;;7.90;99.90;;;;;;4938849;28;20280;-49
2024/02/23 10:19:15;;;;;;;2.37;0.80;;;7.80;99.90;;;;;;4966353;28;20676;-48
2024/02/23 10:21:41;;;;;;;1.70;0.90;;;7.90;99.90;;;;;;4958240;28;20602;-56
2024/02/23 10:24:10;;;;;;;2.57;1.17;;;7.90;99.90;;;;;;4957861;28;20221;-47
2024/02/23 10:26:37;;;;;;;2.77;1.40;;;8.00;99.90;;;;;;4964464;28;20631;-54
2024/02/23 10:29:04;;;;;;;2.37;0.80;;;8.00;99.90;;;;;;4947898;28;20202;-50
2024/02/23 10:31:35;;;;;;;7.73;1.23;;;8.10;99.90;;;;;;4959801;28;20206;-54
2024/02/23 10:34:09;;;;;;;2.83;1.07;;;8.10;99.90;;;;;;4954049;28;20438;-47
2024/02/23 10:36:40;;;;;;;1.97;0.90;;;8.10;99.90;;;;;;4960714;28;20225;-56
2024/02/23 10:39:10;;;;;;;4.13;1.00;;;8.20;99.90;;;;;;4964113;28;20672;-50
2024/02/23 10:41:37;;;;;;;4.53;1.37;;;8.30;99.90;;;;;;4955807;28;20216;-55
2024/02/23 10:44:06;;;;;;;3.13;0.97;;;8.40;99.90;;;;;;4963533;28;20237;-52
2024/02/23 10:46:34;;;;;;;2.47;0.90;;;8.50;99.90;;;;;;4941038;28;20226;-55
2024/02/23 10:49:04;;;;;;;3.57;0.80;;;8.40;99.90;;;;;;4950859;28;20210;-49
2024/02/23 10:51:33;;;;;;;3.80;0.90;;;8.40;99.90;;;;;;4958187;28;20208;-54
2024/02/23 10:54:01;;;;;;;2.57;0.90;;;8.40;99.90;;;;;;4954458;28;20599;-51
2024/02/23 10:56:29;;;;;;;4.37;1.30;;;8.40;99.90;;;;;;4955865;28;20198;-56
2024/02/23 10:58:56;;;;;;;4.83;1.17;;;8.30;99.90;;;;;;4963217;28;20198;-47
2024/02/23 11:01:25;;;;;;;5.10;1.00;;;8.30;99.90;;;;;;4955366;28;20276;-54
2024/02/23 11:03:53;;;;;;;2.47;0.90;;;8.30;99.90;;;;;;4939653;28;20240;-50
2024/02/23 11:06:21;;;;;;;1.57;0.90;;;8.30;99.90;;;;;;4963345;28;20194;-54
2024/02/23 11:08:49;;;;;;;3.73;1.00;;;8.30;99.90;;;;;;4944405;28;20196;-54
2024/02/23 11:11:18;;;;;;;5.13;0.90;;;8.30;99.90;;;;;;4964598;28;20287;-51
2024/02/23 11:13:46;;;;;;;3.73;1.00;;;8.40;99.90;;;;;;4953422;28;20190;-52
2024/02/23 11:16:24;;;;;;;3.83;1.67;;;8.40;99.90;;;;;;4955472;28;20758;-55
2024/02/23 11:19:02;;;;;;;2.63;0.80;;;8.40;99.90;;;;;;4935270;28;20321;-51
2024/02/23 11:21:35;;;;;;;2.87;0.70;;;8.40;99.90;;;;;;4948694;28;20737;-54
2024/02/23 11:24:05;;;;;;;4.30;0.90;;;8.50;99.90;;;;;;4958260;28;20218;-52
2024/02/23 11:26:34;;;;;;;1.93;0.80;;;8.40;99.90;;;;;;4963326;28;20210;-55
2024/02/23 11:29:14;;;;;;;4.03;0.80;;;8.50;99.90;;;;;;4957712;28;20213;-50
2024/02/23 11:31:47;;;;;;;3.57;1.00;;;8.50;99.90;;;;;;4943066;28;20293;-54
2024/02/23 11:34:24;;;;;;;1.77;0.90;;;8.50;99.90;;;;;;4966104;28;20629;-54
2024/02/23 11:36:53;;;;;;;2.03;0.80;;;8.50;99.90;;;;;;4948233;28;20234;-53
2024/02/23 11:39:33;;;;;;;1.87;0.80;;;8.50;99.90;;;;;;4944356;28;20213;-55
2024/02/23 11:42:03;;;;;;;2.53;1.00;;;8.50;99.90;;;;;;4964958;28;20233;-50
2024/02/23 11:44:35;;;;;;;1.33;1.03;;;8.50;99.90;;;;;;4953223;28;20218;-49
2024/02/23 11:47:05;;;;;;;2.43;0.70;;;8.40;99.90;;;;;;4966165;28;20280;-51
2024/02/23 11:49:33;;;;;;;3.20;0.70;;;8.40;99.90;;;;;;4952694;28;20281;-51
2024/02/23 11:52:06;;;;;;;0.67;0.43;;;8.40;99.90;;;;;;4940333;28;20715;-46
2024/02/23 11:54:33;;;;;;;4.33;0.90;;;8.50;99.90;;;;;;4952077;28;20225;-51
2024/02/23 11:57:00;;;;;;;4.80;1.20;;;8.50;99.90;;;;;;4966253;28;20206;-50
2024/02/23 11:59:27;;;;;;;2.17;0.77;;;8.50;99.90;;;;;;4954259;28;20676;-52
2024/02/23 12:01:55;;;;;;;3.90;1.00;;;8.50;99.90;;;;;;4966787;28;20209;-48
2024/02/23 12:04:22;;;;;;;1.07;0.77;;;8.60;99.90;;;;;;4950633;28;20277;-53
2024/02/23 12:06:49;;;;;;;7.13;0.87;;;8.60;99.90;;;;;;4937716;28;20226;-50
2024/02/23 12:09:16;;;;;;;2.53;0.80;;;8.70;99.90;;;;;;4955103;28;20209;-51
2024/02/23 12:11:43;;;;;;;2.53;0.83;;;8.70;99.90;;;;;;4961575;28;20272;-50
2024/02/23 12:14:10;;;;;;;1.27;0.70;;;8.70;99.90;;;;;;4958939;28;20198;-54
2024/02/23 12:16:37;;;;;;;1.30;0.87;;;8.70;99.90;;;;;;4958510;28;20242;-50
2024/02/23 12:19:05;;;;;;;1.73;1.00;;;8.70;99.90;;;;;;4954392;28;20206;-53
2024/02/23 12:21:36;;;;;;;2.70;0.93;;;8.80;99.90;;;;;;4936651;28;20332;-47
2024/02/23 12:24:06;;;;;;;1.87;0.90;;;8.90;99.90;;;;;;4961126;28;20293;-53
2024/02/23 12:26:33;;;;;;;1.97;0.67;;;9.00;99.90;;;;;;4953347;28;20292;-51
2024/02/23 12:29:02;;;;;;;1.30;0.50;;;9.00;99.90;;;;;;4962915;28;20214;-53
2024/02/23 12:31:29;;;;;;;4.40;0.77;;;8.90;99.90;;;;;;4943447;28;20209;-49
2024/02/23 12:33:58;;;;;;;3.60;0.80;;;8.80;99.90;;;;;;4957841;28;20197;-53
2024/02/23 12:36:26;;;;;;;4.67;0.83;;;8.80;99.90;;;;;;4952896;28;20206;-47
2024/02/23 12:38:53;;;;;;;3.27;0.70;;;8.70;99.90;;;;;;4938244;28;20530;-51
2024/02/23 12:41:20;;;;;;;2.27;1.10;;;8.70;99.90;;;;;;4953000;28;20320;-51
2024/02/23 12:43:48;;;;;;;1.03;0.67;;;8.60;99.90;;;;;;4964163;28;20206;-53
2024/02/23 12:46:15;;;;;;;1.43;0.50;;;8.50;99.90;;;;;;4948281;28;20208;-54
2024/02/23 12:48:42;;;;;;;1.77;0.50;;;8.60;99.90;;;;;;4964216;28;20834;-50
2024/02/23 12:51:09;;;;;;;0.90;0.60;;;8.50;99.90;;;;;;4942311;28;20986;-52
2024/02/23 12:53:39;;;;;;;2.57;0.93;;;8.60;99.90;;;;;;4942871;28;20229;-52
2024/02/23 12:56:08;;;;;;;1.63;0.53;;;8.70;99.90;;;;;;4959605;28;20364;-50
2024/02/23 12:58:35;;;;;;;2.17;0.93;;;8.70;99.90;;;;;;4943723;28;20305;-52
2024/02/23 13:01:03;;;;;;;2.47;0.77;;;8.70;99.90;;;;;;4944872;28;21903;-53